Time;durP1;ratioP1;P1;durP2;ratioP2;P2;SDS_P1;SDS_P2;PMS_P1;PMS_P2;Temp;Humidity;BMP_temperature;BMP_pressure;BME280_temperature;BME280_humidity;BME280_pressure;Samples;Min_cycle;Max_cycle;Signal;HPM_P1;HPM_P2
2022/01/28 00:00:14;;;;;;;14.52;7.88;;;;;;;;;;4992465;28;20054;-85
2022/01/28 00:05:17;;;;;;;12.35;7.35;;;;;;;;;;4999394;28;20057;-84
2022/01/28 00:07:43;;;;;;;13.88;7.97;;;;;;;;;;4995139;28;20030;-86
2022/01/28 00:10:09;;;;;;;13.63;8.05;;;;;;;;;;4979347;28;20033;-85
2022/01/28 00:12:38;;;;;;;12.00;7.32;;;;;;;;;;4998167;28;20025;-85
2022/01/28 00:15:18;;;;;;;12.38;6.88;;;;;;;;;;4994075;28;20026;-85
2022/01/28 00:36:32;;;;;;;17.60;7.60;;;;;;;;;;5007280;28;20080;-83
2022/01/28 00:39:33;;;;;;;11.50;6.28;;;;;;;;;;4998068;28;20038;-85
2022/01/28 00:41:58;;;;;;;11.63;7.22;;;;;;;;;;4985283;28;20030;-86
2022/01/28 00:44:24;;;;;;;10.32;6.40;;;;;;;;;;5014120;28;20041;-84
2022/01/28 00:46:49;;;;;;;12.23;6.88;;;;;;;;;;5018699;28;20033;-84
2022/01/28 00:49:15;;;;;;;10.60;6.32;;;;;;;;;;4995932;28;20033;-85
2022/01/28 00:51:40;;;;;;;9.93;6.45;;;;;;;;;;5003561;28;20026;-84
2022/01/28 00:54:06;;;;;;;10.98;5.38;;;;;;;;;;5000583;28;20062;-84
2022/01/28 00:56:31;;;;;;;9.27;6.20;;;;;;;;;;5006789;28;20022;-85
2022/01/28 00:58:57;;;;;;;10.55;5.28;;;;;;;;;;4987496;28;20045;-85
2022/01/28 01:01:22;;;;;;;14.38;5.85;;;;;;;;;;5002320;28;20041;-84
2022/01/28 01:03:47;;;;;;;8.85;5.38;;;;;;;;;;5004531;28;20034;-84
2022/01/28 01:06:13;;;;;;;9.30;5.50;;;;;;;;;;5005553;28;20022;-84
2022/01/28 01:08:38;;;;;;;8.20;5.63;;;;;;;;;;5000522;28;20107;-84
2022/01/28 01:11:05;;;;;;;8.85;5.85;;;;;;;;;;4998629;28;20412;-83
2022/01/28 01:13:35;;;;;;;10.73;5.07;;;;;;;;;;5004904;28;20121;-84
2022/01/28 01:16:01;;;;;;;11.27;6.25;;;;;;;;;;5007352;28;20025;-87
2022/01/28 01:18:35;;;;;;;9.65;5.82;;;;;;;;;;5005518;28;20037;-82
2022/01/28 01:21:08;;;;;;;11.25;5.65;;;;;;;;;;4982402;28;20117;-84
2022/01/28 01:23:38;;;;;;;9.85;5.38;;;;;;;;;;5001428;28;20111;-84
2022/01/28 01:26:12;;;;;;;10.27;6.05;;;;;;;;;;4987861;28;20098;-83
2022/01/28 01:28:40;;;;;;;9.18;5.47;;;;;;;;;;5003626;28;20042;-85
2022/01/28 01:31:11;;;;;;;10.95;6.30;;;;;;;;;;5004119;28;20050;-84
2022/01/28 01:33:46;;;;;;;8.15;5.38;;;;;;;;;;5001951;28;20433;-86
2022/01/28 01:36:14;;;;;;;9.60;5.82;;;;;;;;;;5000218;28;20037;-84
2022/01/28 01:38:41;;;;;;;8.75;5.15;;;;;;;;;;4978843;28;20023;-85
2022/01/28 01:41:36;;;;;;;10.57;6.65;;;;;;;;;;5002027;28;20029;-86
2022/01/28 01:54:21;;;;;;;10.27;5.72;;;;;;;;;;5004041;28;20034;-86
2022/01/28 01:56:47;;;;;;;10.70;6.20;;;;;;;;;;5006619;28;20372;-84
2022/01/28 01:59:13;;;;;;;11.02;6.22;;;;;;;;;;4977712;28;20022;-85
2022/01/28 02:01:43;;;;;;;12.48;5.70;;;;;;;;;;4985731;28;20542;-85
2022/01/28 02:04:09;;;;;;;9.43;5.55;;;;;;;;;;5001472;28;20308;-86
2022/01/28 02:06:36;;;;;;;11.85;6.38;;;;;;;;;;4997060;28;20014;-84
2022/01/28 02:09:01;;;;;;;8.57;4.07;;;;;;;;;;4998995;28;20034;-85
2022/01/28 02:11:27;;;;;;;8.20;4.40;;;;;;;;;;5002230;28;20032;-86
2022/01/28 02:13:52;;;;;;;9.60;5.43;;;;;;;;;;5005918;28;20087;-85
2022/01/28 02:16:19;;;;;;;12.82;6.35;;;;;;;;;;5002375;28;20080;-84
2022/01/28 02:18:44;;;;;;;10.68;6.05;;;;;;;;;;5005135;28;20085;-85
2022/01/28 02:21:13;;;;;;;11.73;5.63;;;;;;;;;;5007393;28;20704;-85
2022/01/28 02:23:40;;;;;;;11.35;6.18;;;;;;;;;;5006346;28;20029;-83
2022/01/28 02:26:06;;;;;;;10.40;5.47;;;;;;;;;;5009256;28;20285;-85
2022/01/28 02:28:36;;;;;;;9.02;5.78;;;;;;;;;;5012126;28;20061;-85
2022/01/28 02:31:03;;;;;;;8.40;5.25;;;;;;;;;;4997660;28;20026;-86
2022/01/28 02:33:29;;;;;;;12.05;6.72;;;;;;;;;;5006928;28;20121;-84
2022/01/28 02:35:56;;;;;;;12.20;6.07;;;;;;;;;;4994710;28;20049;-84
2022/01/28 02:38:23;;;;;;;6.10;3.88;;;;;;;;;;5002204;28;20033;-85
2022/01/28 02:40:56;;;;;;;10.38;5.60;;;;;;;;;;5001276;28;20259;-83
2022/01/28 02:43:32;;;;;;;14.85;6.65;;;;;;;;;;5021818;28;20014;-84
2022/01/28 02:46:06;;;;;;;12.93;5.55;;;;;;;;;;5008132;28;20006;-83
2022/01/28 02:48:33;;;;;;;9.13;5.53;;;;;;;;;;5020964;28;20046;-83
2022/01/28 02:53:27;;;;;;;11.50;6.38;;;;;;;;;;5027928;28;20033;-85
2022/01/28 02:56:02;;;;;;;14.50;6.22;;;;;;;;;;5022232;28;20022;-86
2022/01/28 02:58:27;;;;;;;7.25;4.57;;;;;;;;;;5014189;28;20020;-86
2022/01/28 03:00:55;;;;;;;8.90;5.03;;;;;;;;;;5003914;28;20085;-87
2022/01/28 03:03:24;;;;;;;10.68;6.45;;;;;;;;;;5016614;28;20026;-87
2022/01/28 03:05:50;;;;;;;8.60;5.60;;;;;;;;;;5004315;28;20029;-87
2022/01/28 03:08:17;;;;;;;10.68;5.82;;;;;;;;;;4994685;28;20018;-86
2022/01/28 03:10:52;;;;;;;8.20;5.28;;;;;;;;;;4999152;28;20116;-87
2022/01/28 03:13:31;;;;;;;8.02;4.38;;;;;;;;;;4991004;28;20022;-87
2022/01/28 03:16:08;;;;;;;9.40;4.47;;;;;;;;;;4995072;28;20025;-85
2022/01/28 03:18:44;;;;;;;6.10;4.25;;;;;;;;;;4983651;28;20031;-88
2022/01/28 03:21:19;;;;;;;7.22;3.92;;;;;;;;;;5000971;28;20034;-87
2022/01/28 03:23:44;;;;;;;11.00;4.30;;;;;;;;;;5026539;28;20026;-86
2022/01/28 03:26:09;;;;;;;9.15;4.80;;;;;;;;;;5018137;28;20018;-86
2022/01/28 03:28:35;;;;;;;6.35;3.42;;;;;;;;;;4981734;28;20416;-86
2022/01/28 03:31:06;;;;;;;10.32;5.47;;;;;;;;;;4988080;28;20026;-86
2022/01/28 03:33:32;;;;;;;10.40;4.93;;;;;;;;;;4986503;28;20019;-86
2022/01/28 03:36:01;;;;;;;8.18;4.97;;;;;;;;;;4996232;28;20074;-86
2022/01/28 03:38:26;;;;;;;8.02;4.60;;;;;;;;;;4980650;28;20019;-86
2022/01/28 03:40:54;;;;;;;10.70;4.50;;;;;;;;;;4978407;28;20048;-86
2022/01/28 03:43:20;;;;;;;9.77;4.65;;;;;;;;;;4985908;28;20089;-86
2022/01/28 03:45:45;;;;;;;8.35;4.30;;;;;;;;;;4990307;28;20025;-86
2022/01/28 03:48:11;;;;;;;10.10;4.75;;;;;;;;;;4994450;28;20157;-88
2022/01/28 03:50:36;;;;;;;10.20;4.20;;;;;;;;;;4995834;28;20030;-86
2022/01/28 03:53:03;;;;;;;8.73;5.00;;;;;;;;;;4980120;28;20027;-87
2022/01/28 03:55:28;;;;;;;9.90;5.68;;;;;;;;;;5001797;28;20033;-87
2022/01/28 03:57:54;;;;;;;10.75;5.82;;;;;;;;;;5000173;28;20026;-87
2022/01/28 04:00:19;;;;;;;13.15;6.20;;;;;;;;;;5000347;28;20542;-86
2022/01/28 04:02:46;;;;;;;9.80;4.65;;;;;;;;;;4980454;28;20069;-87
2022/01/28 04:06:04;;;;;;;13.05;5.45;;;;;;;;;;4999084;28;20037;-86
2022/01/28 04:13:28;;;;;;;9.70;4.70;;;;;;;;;;5001037;28;20109;-87
2022/01/28 04:16:28;;;;;;;13.18;6.40;;;;;;;;;;5003960;28;20054;-88
2022/01/28 04:18:39;;;;;;;8.20;4.35;;;;;;;;;;4995781;28;20053;-86
2022/01/28 04:21:04;;;;;;;7.40;5.00;;;;;;;;;;4980529;28;20361;-88
2022/01/28 04:23:29;;;;;;;11.05;5.78;;;;;;;;;;5004449;28;20014;-87
2022/01/28 04:25:55;;;;;;;9.80;5.13;;;;;;;;;;4979133;28;20030;-86
2022/01/28 04:28:20;;;;;;;12.60;7.13;;;;;;;;;;4990975;28;20034;-86
2022/01/28 04:30:47;;;;;;;12.50;6.88;;;;;;;;;;4997462;28;20081;-86
2022/01/28 04:33:12;;;;;;;15.50;6.43;;;;;;;;;;4984849;28;20060;-86
2022/01/28 04:35:38;;;;;;;9.63;5.60;;;;;;;;;;4978066;28;20023;-87
2022/01/28 04:40:42;;;;;;;10.53;5.67;;;;;;;;;;4993550;28;20023;-86
2022/01/28 04:43:20;;;;;;;9.43;5.90;;;;;;;;;;5006853;28;20749;-87
2022/01/28 04:45:58;;;;;;;9.77;5.97;;;;;;;;;;5001028;28;20048;-87
2022/01/28 04:48:32;;;;;;;14.82;6.53;;;;;;;;;;4986520;28;20030;-86
2022/01/28 05:13:54;;;;;;;13.32;8.10;;;;;;;;;;5005908;28;20030;-88
2022/01/28 05:24:48;;;;;;;8.20;4.95;;;;;;;;;;4996918;28;20149;-88
2022/01/28 05:27:10;;;;;;;14.77;6.80;;;;;;;;;;4996241;28;20034;-86
2022/01/28 05:29:35;;;;;;;14.15;7.20;;;;;;;;;;4973242;28;20044;-86
2022/01/28 05:32:02;;;;;;;14.82;6.95;;;;;;;;;;5001880;28;20480;-88
2022/01/28 05:34:27;;;;;;;16.17;6.93;;;;;;;;;;4980512;28;20030;-87
2022/01/28 05:36:54;;;;;;;15.90;8.07;;;;;;;;;;4994365;28;20034;-86
2022/01/28 05:39:20;;;;;;;15.02;7.40;;;;;;;;;;4977003;28;20029;-87
2022/01/28 05:41:45;;;;;;;16.02;7.45;;;;;;;;;;4993128;28;20036;-87
2022/01/28 05:44:11;;;;;;;9.15;6.22;;;;;;;;;;4984316;28;20105;-87
2022/01/28 05:46:37;;;;;;;13.80;6.43;;;;;;;;;;4976369;28;20112;-86
2022/01/28 05:49:02;;;;;;;11.80;5.67;;;;;;;;;;4977064;28;20064;-87
2022/01/28 05:51:28;;;;;;;15.35;5.90;;;;;;;;;;4987230;28;20608;-87
2022/01/28 05:53:57;;;;;;;13.20;6.32;;;;;;;;;;5001583;28;20030;-87
2022/01/28 05:56:23;;;;;;;13.00;6.78;;;;;;;;;;4993793;28;20029;-88
2022/01/28 05:58:48;;;;;;;14.40;7.30;;;;;;;;;;4974870;28;20058;-87
2022/01/28 06:01:13;;;;;;;17.00;6.88;;;;;;;;;;5007897;28;20018;-87
2022/01/28 06:03:39;;;;;;;13.05;7.25;;;;;;;;;;4993944;28;20400;-86
2022/01/28 06:06:04;;;;;;;15.57;7.72;;;;;;;;;;4976249;28;20420;-87
2022/01/28 06:08:30;;;;;;;14.23;7.25;;;;;;;;;;4992176;28;20038;-87
2022/01/28 06:10:55;;;;;;;11.80;6.43;;;;;;;;;;4989653;28;20052;-88
2022/01/28 06:13:23;;;;;;;12.10;6.45;;;;;;;;;;4999344;28;20026;-88
2022/01/28 06:15:49;;;;;;;11.98;7.32;;;;;;;;;;4997988;28;20037;-87
2022/01/28 06:18:14;;;;;;;14.65;7.30;;;;;;;;;;4991915;28;20027;-87
2022/01/28 06:20:39;;;;;;;13.30;6.65;;;;;;;;;;4975265;28;20037;-87
2022/01/28 06:23:05;;;;;;;8.38;5.22;;;;;;;;;;4975458;28;20037;-86
2022/01/28 06:25:31;;;;;;;14.38;7.15;;;;;;;;;;4984171;28;20033;-87
2022/01/28 06:27:56;;;;;;;12.75;6.50;;;;;;;;;;4974353;28;20081;-87
2022/01/28 06:30:22;;;;;;;20.40;6.93;;;;;;;;;;4980126;28;20464;-87
2022/01/28 06:32:49;;;;;;;12.80;6.38;;;;;;;;;;5002975;28;20503;-88
2022/01/28 06:35:14;;;;;;;15.23;7.55;;;;;;;;;;5000533;28;20034;-87
2022/01/28 06:37:42;;;;;;;15.20;6.70;;;;;;;;;;4996635;28;20042;-85
2022/01/28 06:40:13;;;;;;;17.58;8.40;;;;;;;;;;4993505;28;20068;-84
2022/01/28 06:42:39;;;;;;;10.13;5.57;;;;;;;;;;5002983;28;20084;-82
2022/01/28 06:45:05;;;;;;;16.27;6.93;;;;;;;;;;4984334;28;20022;-82
2022/01/28 06:47:32;;;;;;;18.55;8.55;;;;;;;;;;4994692;28;20046;-81
2022/01/28 06:49:58;;;;;;;18.55;8.15;;;;;;;;;;4998608;28;20077;-83
2022/01/28 06:52:23;;;;;;;17.80;9.07;;;;;;;;;;4990158;28;20030;-83
2022/01/28 06:54:49;;;;;;;13.50;7.97;;;;;;;;;;4987165;28;20092;-82
2022/01/28 06:57:14;;;;;;;19.95;9.23;;;;;;;;;;4988903;28;20034;-84
2022/01/28 06:59:40;;;;;;;15.68;8.45;;;;;;;;;;4990337;28;20527;-82
2022/01/28 07:02:05;;;;;;;18.65;8.77;;;;;;;;;;5008862;28;20037;-85
2022/01/28 07:04:31;;;;;;;20.73;8.88;;;;;;;;;;5000354;28;20041;-85
2022/01/28 07:06:56;;;;;;;18.52;9.05;;;;;;;;;;5007118;28;20032;-85
2022/01/28 07:09:21;;;;;;;13.50;6.95;;;;;;;;;;4997564;28;20444;-84
2022/01/28 07:11:47;;;;;;;16.02;7.15;;;;;;;;;;5007103;28;20534;-85
2022/01/28 07:14:12;;;;;;;14.45;7.60;;;;;;;;;;4996149;28;20058;-84
2022/01/28 07:16:38;;;;;;;18.15;8.23;;;;;;;;;;4980300;28;20084;-86
2022/01/28 07:19:04;;;;;;;17.63;8.55;;;;;;;;;;4996509;28;20079;-85
2022/01/28 07:21:29;;;;;;;15.90;7.72;;;;;;;;;;5006175;28;20061;-87
2022/01/28 07:23:55;;;;;;;13.45;7.45;;;;;;;;;;4995765;28;20030;-84
2022/01/28 07:26:20;;;;;;;12.15;7.00;;;;;;;;;;4996640;28;20084;-86
2022/01/28 07:28:46;;;;;;;13.82;6.15;;;;;;;;;;4981569;28;20037;-81
2022/01/28 07:31:15;;;;;;;17.88;8.98;;;;;;;;;;5026055;28;20049;-80
2022/01/28 07:33:41;;;;;;;16.30;9.02;;;;;;;;;;5003987;28;20022;-81
2022/01/28 07:36:07;;;;;;;16.63;6.80;;;;;;;;;;5017979;28;20031;-87
2022/01/28 07:38:32;;;;;;;12.77;7.28;;;;;;;;;;4998706;28;20500;-85
2022/01/28 07:40:58;;;;;;;18.27;9.23;;;;;;;;;;4982358;28;20071;-85
2022/01/28 07:43:25;;;;;;;19.77;7.90;;;;;;;;;;5006577;28;20544;-86
2022/01/28 07:45:50;;;;;;;14.98;7.03;;;;;;;;;;4990849;28;20413;-86
2022/01/28 07:48:16;;;;;;;13.32;7.57;;;;;;;;;;5002300;28;20091;-85
2022/01/28 07:50:41;;;;;;;14.77;8.63;;;;;;;;;;4991237;28;20018;-87
2022/01/28 07:53:08;;;;;;;16.25;7.85;;;;;;;;;;4992037;28;20094;-86
2022/01/28 07:55:34;;;;;;;15.13;7.45;;;;;;;;;;4983534;28;20090;-87
2022/01/28 07:57:59;;;;;;;15.07;8.57;;;;;;;;;;4998144;28;20493;-85
2022/01/28 08:00:27;;;;;;;10.50;5.82;;;;;;;;;;5007600;28;20022;-85
2022/01/28 08:02:52;;;;;;;15.00;7.97;;;;;;;;;;5017545;28;20033;-87
2022/01/28 08:05:18;;;;;;;14.43;7.60;;;;;;;;;;4977711;28;20030;-86
2022/01/28 08:07:44;;;;;;;14.77;6.85;;;;;;;;;;4998078;28;20030;-86
2022/01/28 08:10:10;;;;;;;22.13;7.63;;;;;;;;;;4999941;28;20034;-86
2022/01/28 08:12:49;;;;;;;12.30;7.50;;;;;;;;;;4997881;28;20141;-84
2022/01/28 08:15:16;;;;;;;14.05;6.78;;;;;;;;;;5005858;28;20168;-88
2022/01/28 08:17:41;;;;;;;11.80;5.72;;;;;;;;;;4998963;28;20042;-82
2022/01/28 08:20:08;;;;;;;13.15;5.25;;;;;;;;;;5019044;28;20026;-87
2022/01/28 08:22:45;;;;;;;14.43;5.82;;;;;;;;;;5019724;28;20030;-85
2022/01/28 08:25:11;;;;;;;12.30;5.80;;;;;;;;;;4993598;28;20102;-86
2022/01/28 08:27:36;;;;;;;12.88;6.28;;;;;;;;;;4982024;28;20030;-85
2022/01/28 08:30:02;;;;;;;11.45;5.55;;;;;;;;;;5002738;28;20027;-86
2022/01/28 08:32:27;;;;;;;10.35;5.50;;;;;;;;;;4998577;28;20032;-86
2022/01/28 08:34:54;;;;;;;13.40;5.80;;;;;;;;;;5010541;28;20033;-85
2022/01/28 08:37:19;;;;;;;11.50;5.40;;;;;;;;;;4983403;28;20029;-81
2022/01/28 08:39:45;;;;;;;12.82;6.43;;;;;;;;;;4996046;28;20034;-84
2022/01/28 08:42:10;;;;;;;9.63;5.32;;;;;;;;;;5009954;28;20027;-85
2022/01/28 08:44:35;;;;;;;10.57;5.13;;;;;;;;;;5005706;28;20535;-84
2022/01/28 08:47:01;;;;;;;11.40;5.50;;;;;;;;;;4982801;28;20424;-85
2022/01/28 08:49:26;;;;;;;13.10;5.60;;;;;;;;;;4979200;28;20113;-86
2022/01/28 08:51:52;;;;;;;10.52;6.03;;;;;;;;;;4988702;28;20034;-85
2022/01/28 08:54:17;;;;;;;8.90;5.07;;;;;;;;;;5011154;28;20044;-85
2022/01/28 08:56:43;;;;;;;8.63;4.85;;;;;;;;;;5003001;28;20033;-87
2022/01/28 08:59:09;;;;;;;10.23;4.97;;;;;;;;;;4993678;28;20085;-86
2022/01/28 09:01:34;;;;;;;9.88;4.80;;;;;;;;;;4989733;28;20026;-86
2022/01/28 09:04:00;;;;;;;8.15;4.40;;;;;;;;;;4998560;28;20030;-85
2022/01/28 09:06:25;;;;;;;13.48;4.95;;;;;;;;;;5013361;28;20328;-87
2022/01/28 09:08:54;;;;;;;8.77;3.65;;;;;;;;;;5001584;28;20036;-85
2022/01/28 09:13:49;;;;;;;6.75;4.25;;;;;;;;;;5006409;28;20030;-87
2022/01/28 09:16:14;;;;;;;11.90;4.20;;;;;;;;;;4989032;28;20033;-87
2022/01/28 09:18:40;;;;;;;10.02;4.18;;;;;;;;;;4995229;28;20026;-87
2022/01/28 09:21:06;;;;;;;8.77;3.33;;;;;;;;;;5003502;28;20362;-85
2022/01/28 09:23:31;;;;;;;6.22;3.40;;;;;;;;;;4988352;28;20050;-85
2022/01/28 09:25:57;;;;;;;12.20;3.63;;;;;;;;;;5008509;28;20113;-88
2022/01/28 09:28:22;;;;;;;9.85;3.78;;;;;;;;;;4979759;28;20026;-86
2022/01/28 09:30:48;;;;;;;10.45;4.13;;;;;;;;;;4980648;28;20075;-86
2022/01/28 09:33:14;;;;;;;6.72;2.75;;;;;;;;;;4997433;28;20034;-86
2022/01/28 09:35:41;;;;;;;8.23;3.38;;;;;;;;;;4974865;28;20033;-88
2022/01/28 09:38:07;;;;;;;12.50;3.47;;;;;;;;;;4993406;28;20026;-87
2022/01/28 09:40:33;;;;;;;10.80;3.60;;;;;;;;;;4993193;28;20491;-88
2022/01/28 09:43:01;;;;;;;9.82;3.35;;;;;;;;;;5001839;28;20025;-88
2022/01/28 09:45:26;;;;;;;5.13;3.00;;;;;;;;;;4985641;28;20093;-86
2022/01/28 09:58:00;;;;;;;5.25;2.92;;;;;;;;;;4992650;28;20100;-86
2022/01/28 10:00:27;;;;;;;7.18;3.17;;;;;;;;;;5001836;28;20022;-85
2022/01/28 10:03:17;;;;;;;5.47;3.10;;;;;;;;;;4986327;28;20050;-86
2022/01/28 10:05:45;;;;;;;6.80;2.58;;;;;;;;;;4976806;28;20026;-86
2022/01/28 10:08:16;;;;;;;8.18;3.00;;;;;;;;;;4990125;28;20042;-87
2022/01/28 10:10:46;;;;;;;8.30;2.83;;;;;;;;;;5004854;28;20029;-87
2022/01/28 10:13:21;;;;;;;6.03;2.75;;;;;;;;;;4988143;28;20357;-87
2022/01/28 10:15:55;;;;;;;5.40;2.63;;;;;;;;;;4979567;28;20053;-86
2022/01/28 10:18:27;;;;;;;3.63;2.58;;;;;;;;;;4998675;28;20060;-88
2022/01/28 10:20:52;;;;;;;5.38;3.22;;;;;;;;;;5005805;28;20018;-85
2022/01/28 10:23:20;;;;;;;7.47;3.05;;;;;;;;;;4986456;28;20027;-88
2022/01/28 10:25:55;;;;;;;4.55;2.88;;;;;;;;;;4988295;28;20043;-88
2022/01/28 10:28:21;;;;;;;6.55;3.15;;;;;;;;;;4998819;28;20404;-89
2022/01/28 10:30:46;;;;;;;5.50;2.85;;;;;;;;;;4998189;28;20022;-87
2022/01/28 10:33:23;;;;;;;19.73;3.33;;;;;;;;;;4980502;28;20349;-85
2022/01/28 10:35:51;;;;;;;11.18;2.85;;;;;;;;;;4997234;28;20080;-89
2022/01/28 10:38:34;;;;;;;6.78;2.88;;;;;;;;;;4985952;28;20117;-86
2022/01/28 10:41:10;;;;;;;4.43;1.95;;;;;;;;;;5001926;28;20018;-87
2022/01/28 10:43:42;;;;;;;7.78;2.42;;;;;;;;;;4992052;28;20022;-87
2022/01/28 10:46:08;;;;;;;7.35;2.05;;;;;;;;;;5000934;28;20034;-86
2022/01/28 10:48:49;;;;;;;4.97;2.33;;;;;;;;;;5001536;28;20045;-87
2022/01/28 10:51:15;;;;;;;3.53;1.35;;;;;;;;;;4983032;28;20018;-88
2022/01/28 10:53:40;;;;;;;3.42;2.00;;;;;;;;;;4990223;28;20095;-89
2022/01/28 10:56:11;;;;;;;7.82;2.13;;;;;;;;;;5018606;28;20160;-85
2022/01/28 10:58:38;;;;;;;6.40;2.72;;;;;;;;;;5002839;28;20575;-88
2022/01/28 11:01:04;;;;;;;8.75;2.60;;;;;;;;;;4988605;28;20036;-88
2022/01/28 11:03:30;;;;;;;6.90;2.65;;;;;;;;;;5010088;28;20030;-86
2022/01/28 11:06:01;;;;;;;3.75;2.10;;;;;;;;;;5017274;28;20096;-87
2022/01/28 11:08:29;;;;;;;5.10;2.70;;;;;;;;;;4982361;28;20676;-86
2022/01/28 11:10:55;;;;;;;5.65;2.40;;;;;;;;;;5004412;28;20014;-87
2022/01/28 11:13:21;;;;;;;6.40;2.20;;;;;;;;;;5008381;28;20030;-88
2022/01/28 11:15:47;;;;;;;9.68;2.30;;;;;;;;;;5000993;28;20022;-86
2022/01/28 11:18:14;;;;;;;3.08;2.15;;;;;;;;;;4999559;28;20022;-87
2022/01/28 11:21:05;;;;;;;6.35;2.70;;;;;;;;;;4982767;28;20073;-88
2022/01/28 11:23:45;;;;;;;7.50;2.83;;;;;;;;;;4988643;28;20093;-88
2022/01/28 11:26:34;;;;;;;3.15;2.30;;;;;;;;;;4993724;28;20028;-88
2022/01/28 11:29:08;;;;;;;6.20;2.75;;;;;;;;;;4984618;28;20511;-86
2022/01/28 11:31:56;;;;;;;3.53;1.80;;;;;;;;;;5005825;28;20076;-88
2022/01/28 11:34:23;;;;;;;0.90;0.90;;;;;;;;;;5000069;28;20105;-86
2022/01/28 11:36:49;;;;;;;4.97;2.20;;;;;;;;;;5004722;28;20030;-88
2022/01/28 11:39:39;;;;;;;4.80;2.10;;;;;;;;;;4980860;28;20054;-88
2022/01/28 11:42:23;;;;;;;2.97;2.08;;;;;;;;;;5010997;28;20034;-82
2022/01/28 11:44:58;;;;;;;5.95;3.58;;;;;;;;;;4986914;28;21443;-84
2022/01/28 11:47:27;;;;;;;6.20;2.78;;;;;;;;;;5003653;28;20109;-84
2022/01/28 11:50:12;;;;;;;8.18;3.50;;;;;;;;;;5005664;28;20054;-87
2022/01/28 11:52:38;;;;;;;3.53;2.00;;;;;;;;;;5000612;28;20030;-87
2022/01/28 11:55:20;;;;;;;8.23;2.17;;;;;;;;;;4997497;28;20027;-84
2022/01/28 11:58:00;;;;;;;7.50;3.78;;;;;;;;;;4982053;28;20029;-89
2022/01/28 12:00:47;;;;;;;3.80;2.30;;;;;;;;;;4975601;28;20111;-87
2022/01/28 12:03:26;;;;;;;6.03;2.95;;;;;;;;;;4997418;28;20025;-89
2022/01/28 12:05:56;;;;;;;7.18;3.22;;;;;;;;;;4981483;28;20041;-88
2022/01/28 12:08:26;;;;;;;9.52;3.90;;;;;;;;;;4981506;28;20018;-88
2022/01/28 12:10:54;;;;;;;5.25;3.03;;;;;;;;;;4999007;28;20034;-87
2022/01/28 12:13:31;;;;;;;6.63;3.17;;;;;;;;;;4985011;28;20018;-89
2022/01/28 12:18:43;;;;;;;6.18;3.20;;;;;;;;;;4997524;28;20038;-87
2022/01/28 12:21:13;;;;;;;5.88;3.03;;;;;;;;;;4997808;28;20033;-86
2022/01/28 12:23:38;;;;;;;9.63;4.30;;;;;;;;;;4980402;28;20036;-88
2022/01/28 12:29:50;;;;;;;7.00;3.05;;;;;;;;;;4975645;28;20057;-87
2022/01/28 12:32:23;;;;;;;11.30;3.72;;;;;;;;;;4979439;28;20030;-86
2022/01/28 12:34:49;;;;;;;6.22;2.33;;;;;;;;;;4980943;28;20026;-87
2022/01/28 12:37:20;;;;;;;6.70;2.85;;;;;;;;;;4980076;28;20037;-86
2022/01/28 12:39:55;;;;;;;6.05;2.60;;;;;;;;;;4980502;28;20022;-87
2022/01/28 12:44:54;;;;;;;8.18;3.65;;;;;;;;;;5000136;28;20109;-85
2022/01/28 12:47:21;;;;;;;6.03;3.08;;;;;;;;;;4980190;28;20156;-85
2022/01/28 12:49:53;;;;;;;9.98;3.83;;;;;;;;;;4983013;28;20505;-84
2022/01/28 12:52:19;;;;;;;6.57;3.58;;;;;;;;;;4988654;28;20034;-85
2022/01/28 12:54:46;;;;;;;9.52;3.42;;;;;;;;;;4995836;28;20026;-84
2022/01/28 12:57:19;;;;;;;7.68;4.35;;;;;;;;;;4996541;28;20029;-84
2022/01/28 12:59:46;;;;;;;7.93;4.03;;;;;;;;;;4996079;28;20033;-84
2022/01/28 13:02:12;;;;;;;6.95;3.50;;;;;;;;;;4997940;28;20026;-86
2022/01/28 13:09:55;;;;;;;9.82;3.83;;;;;;;;;;4998247;28;20050;-85
2022/01/28 13:12:27;;;;;;;8.10;4.57;;;;;;;;;;4983010;28;20014;-85
2022/01/28 13:14:53;;;;;;;8.27;4.40;;;;;;;;;;5000634;28;20110;-85
2022/01/28 13:17:21;;;;;;;11.30;4.43;;;;;;;;;;5002468;28;20022;-82
2022/01/28 13:20:00;;;;;;;20.27;6.40;;;;;;;;;;5007899;28;20059;-84
2022/01/28 13:22:28;;;;;;;12.02;4.30;;;;;;;;;;4984176;28;20108;-83
2022/01/28 13:24:56;;;;;;;12.65;5.43;;;;;;;;;;5002632;28;20075;-86
2022/01/28 13:27:36;;;;;;;10.23;4.13;;;;;;;;;;5000171;28;20026;-86
2022/01/28 13:30:15;;;;;;;8.75;4.20;;;;;;;;;;4992192;28;20033;-84
2022/01/28 13:36:04;;;;;;;10.30;5.65;;;;;;;;;;4996377;28;20037;-84
2022/01/28 13:38:39;;;;;;;10.68;5.63;;;;;;;;;;5001724;28;20080;-85
2022/01/28 13:41:24;;;;;;;13.48;5.95;;;;;;;;;;4986138;28;20040;-83
2022/01/28 13:43:50;;;;;;;11.02;5.40;;;;;;;;;;4994619;28;20025;-85
2022/01/28 13:46:18;;;;;;;11.10;5.72;;;;;;;;;;4997305;28;20022;-84
2022/01/28 13:48:47;;;;;;;11.80;5.50;;;;;;;;;;4977296;28;20184;-84
2022/01/28 13:51:17;;;;;;;14.27;5.80;;;;;;;;;;5001878;28;20034;-84
2022/01/28 13:56:42;;;;;;;10.38;5.38;;;;;;;;;;4995967;28;20030;-86
2022/01/28 13:59:24;;;;;;;10.02;5.63;;;;;;;;;;4997591;28;20068;-86
2022/01/28 14:01:52;;;;;;;15.60;6.50;;;;;;;;;;4990699;28;20031;-83
2022/01/28 14:04:22;;;;;;;12.32;5.38;;;;;;;;;;4992124;28;20030;-84
2022/01/28 14:06:48;;;;;;;12.43;6.45;;;;;;;;;;4996747;28;20392;-84
2022/01/28 14:09:20;;;;;;;11.60;4.45;;;;;;;;;;4999454;28;20062;-85
2022/01/28 14:11:49;;;;;;;11.13;4.65;;;;;;;;;;5000192;28;20065;-85
2022/01/28 14:14:29;;;;;;;10.95;5.20;;;;;;;;;;5002231;28;20021;-85
2022/01/28 14:16:57;;;;;;;12.82;4.82;;;;;;;;;;5005342;28;20029;-83
2022/01/28 14:19:24;;;;;;;10.35;4.78;;;;;;;;;;5005053;28;20025;-88
2022/01/28 14:21:51;;;;;;;12.77;4.68;;;;;;;;;;4991407;28;20032;-85
2022/01/28 14:24:28;;;;;;;8.55;4.00;;;;;;;;;;4996781;28;20086;-83
2022/01/28 14:29:48;;;;;;;10.63;5.10;;;;;;;;;;4998012;28;20019;-84
2022/01/28 14:32:18;;;;;;;8.93;5.13;;;;;;;;;;4984067;28;20018;-85
2022/01/28 14:34:45;;;;;;;10.70;5.43;;;;;;;;;;5004681;28;20035;-85
2022/01/28 14:37:11;;;;;;;10.18;4.40;;;;;;;;;;5008229;28;20026;-85
2022/01/28 14:39:38;;;;;;;10.35;4.72;;;;;;;;;;5004053;28;20081;-84
2022/01/28 14:42:08;;;;;;;13.57;5.13;;;;;;;;;;5009097;28;20021;-84
2022/01/28 14:44:36;;;;;;;9.13;4.68;;;;;;;;;;5003680;28;20026;-84
2022/01/28 14:47:03;;;;;;;6.38;4.40;;;;;;;;;;5006599;28;20064;-84
2022/01/28 14:49:29;;;;;;;7.47;4.72;;;;;;;;;;4975411;28;20018;-82
2022/01/28 14:51:57;;;;;;;10.07;4.22;;;;;;;;;;5001584;28;20029;-82
2022/01/28 14:54:26;;;;;;;7.47;3.72;;;;;;;;;;5007974;28;20054;-81
2022/01/28 14:56:55;;;;;;;7.55;3.47;;;;;;;;;;4995017;28;20030;-82
2022/01/28 14:59:21;;;;;;;17.10;5.82;;;;;;;;;;4995617;28;20033;-81
2022/01/28 15:01:47;;;;;;;13.52;4.80;;;;;;;;;;4998823;28;20034;-82
2022/01/28 15:04:12;;;;;;;16.58;4.70;;;;;;;;;;4994675;28;20111;-81
2022/01/28 15:06:38;;;;;;;6.88;2.78;;;;;;;;;;4989612;28;20380;-81
2022/01/28 15:09:05;;;;;;;10.73;5.05;;;;;;;;;;4983913;28;20026;-81
2022/01/28 15:11:52;;;;;;;10.18;5.22;;;;;;;;;;4996675;28;20026;-82
2022/01/28 15:14:19;;;;;;;9.98;3.35;;;;;;;;;;4997021;28;20038;-82
2022/01/28 15:16:46;;;;;;;8.00;4.32;;;;;;;;;;4978678;28;20362;-82
2022/01/28 15:19:12;;;;;;;8.35;4.28;;;;;;;;;;4998083;28;20077;-81
2022/01/28 15:21:37;;;;;;;7.55;4.25;;;;;;;;;;4997676;28;20023;-82
2022/01/28 15:24:03;;;;;;;10.40;5.13;;;;;;;;;;4998957;28;20026;-82
2022/01/28 15:26:29;;;;;;;9.70;4.75;;;;;;;;;;4998235;28;20424;-82
2022/01/28 15:29:08;;;;;;;11.02;5.30;;;;;;;;;;4993905;28;20106;-84
2022/01/28 15:43:00;;;;;;;10.15;5.05;;;;;;;;;;5904549;23;20049;-82
2022/01/28 15:45:31;;;;;;;8.80;4.53;;;;;;;;;;5019460;28;20113;-84
2022/01/28 15:47:58;;;;;;;12.63;5.82;;;;;;;;;;5009410;28;20033;-85
2022/01/28 15:50:24;;;;;;;11.35;5.38;;;;;;;;;;5029667;28;20052;-82
2022/01/28 15:52:50;;;;;;;13.05;5.88;;;;;;;;;;5027741;28;20017;-83
2022/01/28 15:55:18;;;;;;;15.48;5.55;;;;;;;;;;5016203;28;20020;-81
2022/01/28 15:57:43;;;;;;;8.90;5.07;;;;;;;;;;5045309;28;20141;-81
2022/01/28 16:00:09;;;;;;;14.25;5.88;;;;;;;;;;5020921;28;20030;-80
2022/01/28 16:02:35;;;;;;;12.02;5.35;;;;;;;;;;5037933;28;20017;-85
2022/01/28 16:05:01;;;;;;;11.40;5.32;;;;;;;;;;5021237;28;20013;-82
2022/01/28 16:07:29;;;;;;;14.40;6.05;;;;;;;;;;5036440;28;20025;-83
2022/01/28 16:10:02;;;;;;;11.43;5.60;;;;;;;;;;5037280;28;20017;-83
2022/01/28 16:12:47;;;;;;;12.20;5.30;;;;;;;;;;5035887;28;20009;-82
2022/01/28 16:17:46;;;;;;;10.43;5.40;;;;;;;;;;5034832;28;20010;-89
2022/01/28 16:20:13;;;;;;;10.77;5.60;;;;;;;;;;5007766;28;20057;-85
2022/01/28 16:22:38;;;;;;;14.00;6.15;;;;;;;;;;5019951;28;20045;-85
2022/01/28 16:25:05;;;;;;;13.77;5.45;;;;;;;;;;5020134;28;20037;-83
2022/01/28 16:27:31;;;;;;;10.02;4.57;;;;;;;;;;5017978;28;20041;-83
2022/01/28 16:29:56;;;;;;;15.32;6.10;;;;;;;;;;4998940;28;20061;-83
2022/01/28 16:32:22;;;;;;;12.82;5.68;;;;;;;;;;5015147;28;20068;-82
2022/01/28 16:34:49;;;;;;;9.73;5.57;;;;;;;;;;5019531;28;20022;-84
2022/01/28 16:37:15;;;;;;;11.70;6.10;;;;;;;;;;5014246;28;20021;-82
2022/01/28 16:39:43;;;;;;;12.50;5.80;;;;;;;;;;5023182;28;20025;-84
2022/01/28 16:42:11;;;;;;;14.25;6.18;;;;;;;;;;5002252;28;20097;-83
2022/01/28 16:44:45;;;;;;;14.20;5.72;;;;;;;;;;5018148;28;20026;-83
2022/01/28 16:47:11;;;;;;;10.75;5.28;;;;;;;;;;4999855;28;20030;-81